Time;durP1;ratioP1;P1;durP2;ratioP2;P2;SDS_P1;SDS_P2;PMS_P1;PMS_P2;Temp;Humidity;BMP_temperature;BMP_pressure;BME280_temperature;BME280_humidity;BME280_pressure;Samples;Min_cycle;Max_cycle;Signal;HPM_P1;HPM_P2
2022/05/05 00:01:26;;;;;;;;;;;8.60;99.90;;;;;;5035290;28;19921;-72
2022/05/05 00:03:51;;;;;;;;;;;8.60;99.90;;;;;;5036541;28;20031;-71
2022/05/05 00:06:17;;;;;;;;;;;8.60;99.90;;;;;;5035287;28;19921;-71
2022/05/05 00:08:42;;;;;;;;;;;8.60;99.90;;;;;;5035039;28;19928;-71
2022/05/05 00:16:36;;;;;;;;;;;8.60;99.90;;;;;;5034553;28;20337;-71
2022/05/05 00:19:02;;;;;;;;;;;8.70;99.90;;;;;;5035018;28;19928;-71
2022/05/05 00:21:28;;;;;;;;;;;8.60;99.90;;;;;;5035977;28;19931;-72
2022/05/05 00:23:53;;;;;;;;;;;8.60;99.90;;;;;;5035443;28;19925;-71
2022/05/05 00:26:19;;;;;;;;;;;8.60;99.90;;;;;;5034884;28;19925;-72
2022/05/05 00:28:44;;;;;;;;;;;8.60;99.90;;;;;;5035974;28;20007;-72
2022/05/05 00:31:10;;;;;;;;;;;8.60;99.90;;;;;;5035392;28;20003;-71
2022/05/05 00:33:35;;;;;;;;;;;8.50;99.90;;;;;;5034944;28;19975;-71
2022/05/05 00:36:01;;;;;;;;;;;8.50;99.90;;;;;;5034384;28;20050;-72
2022/05/05 00:38:26;;;;;;;;;;;8.40;99.90;;;;;;5036062;28;19979;-71
2022/05/05 00:40:52;;;;;;;;;;;8.40;99.90;;;;;;5033046;28;19921;-71
2022/05/05 00:43:17;;;;;;;;;;;8.40;99.90;;;;;;5034280;28;19925;-71
2022/05/05 00:45:43;;;;;;;;;;;8.30;99.90;;;;;;5036068;28;19928;-71
2022/05/05 00:48:09;;;;;;;;;;;8.30;99.90;;;;;;5034815;28;20296;-71
2022/05/05 00:50:35;;;;;;;;;;;8.20;99.90;;;;;;5034709;28;19921;-71
2022/05/05 00:53:01;;;;;;;;;;;8.10;99.90;;;;;;5033879;28;19971;-71
2022/05/05 00:55:28;;;;;;;;;;;8.10;99.90;;;;;;5033415;28;19947;-71
2022/05/05 00:57:53;;;;;;;;;;;8.10;99.90;;;;;;5035503;28;19921;-71
2022/05/05 01:00:19;;;;;;;;;;;8.20;99.90;;;;;;5035273;28;20016;-71
2022/05/05 01:02:46;;;;;;;;;;;8.00;99.90;;;;;;5032929;28;19925;-71
2022/05/05 01:05:12;;;;;;;;;;;8.00;99.90;;;;;;5034122;28;19979;-71
2022/05/05 01:07:38;;;;;;;;;;;7.90;99.90;;;;;;5034002;28;19927;-71
2022/05/05 01:10:04;;;;;;;;;;;7.80;99.90;;;;;;5034421;28;20023;-71
2022/05/05 01:12:31;;;;;;;;;;;7.80;99.90;;;;;;5033436;28;19932;-71
2022/05/05 01:15:00;;;;;;;;;;;7.70;99.90;;;;;;5035171;28;19982;-71
2022/05/05 01:17:26;;;;;;;;;;;7.60;99.90;;;;;;5034658;28;20295;-71
2022/05/05 01:19:51;;;;;;;;;;;7.60;99.90;;;;;;5035449;28;19917;-71
2022/05/05 01:22:17;;;;;;;;;;;7.60;99.90;;;;;;5033842;28;20335;-71
2022/05/05 01:30:11;;;;;;;;;;;7.40;99.90;;;;;;5033120;28;19971;-71
2022/05/05 01:32:37;;;;;;;;;;;7.40;99.90;;;;;;5032654;28;19976;-71
2022/05/05 01:35:03;;;;;;;;;;;7.40;99.90;;;;;;5030300;28;19928;-72
2022/05/05 01:37:29;;;;;;;;;;;7.40;99.90;;;;;;5033390;28;19925;-71
2022/05/05 01:39:54;;;;;;;;;;;7.30;99.90;;;;;;5032394;28;19921;-71
2022/05/05 01:42:20;;;;;;;;;;;7.30;99.90;;;;;;5033032;28;19921;-71
2022/05/05 01:44:45;;;;;;;;;;;7.30;99.90;;;;;;5031816;28;20387;-71
2022/05/05 01:47:11;;;;;;;;;;;7.30;99.90;;;;;;5032272;28;19961;-72
2022/05/05 01:49:36;;;;;;;;;;;7.20;99.90;;;;;;5029986;28;19928;-71
2022/05/05 01:52:02;;;;;;;;;;;7.20;99.90;;;;;;5031184;28;19982;-71
2022/05/05 01:54:28;;;;;;;;;;;7.20;99.90;;;;;;5032578;28;20427;-72
2022/05/05 01:56:53;;;;;;;;;;;7.20;99.90;;;;;;5031624;28;19921;-72
2022/05/05 01:59:19;;;;;;;;;;;7.20;99.90;;;;;;5015623;28;19979;-71
2022/05/05 02:01:44;;;;;;;;;;;7.20;99.90;;;;;;5032865;28;20284;-71
2022/05/05 02:04:09;;;;;;;;;;;7.20;99.90;;;;;;5033514;28;19932;-71
2022/05/05 02:06:35;;;;;;;;;;;7.20;99.90;;;;;;5032768;28;19967;-71
2022/05/05 02:09:01;;;;;;;;;;;7.10;99.90;;;;;;5032436;28;20361;-71
2022/05/05 02:11:26;;;;;;;;;;;7.10;99.90;;;;;;5032071;28;19921;-71
2022/05/05 02:13:52;;;;;;;;;;;7.10;99.90;;;;;;5030957;28;19931;-71
2022/05/05 02:16:18;;;;;;;;;;;7.10;99.90;;;;;;5033611;28;20396;-71
2022/05/05 02:18:43;;;;;;;;;;;7.10;99.90;;;;;;5033140;28;20356;-72
2022/05/05 02:21:08;;;;;;;;;;;7.10;99.90;;;;;;5033820;28;19964;-71
2022/05/05 02:23:34;;;;;;;;;;;7.10;99.90;;;;;;5032281;28;19921;-71
2022/05/05 02:26:06;;;;;;;;;;;7.10;99.90;;;;;;5032648;28;19921;-71
2022/05/05 02:28:31;;;;;;;;;;;7.80;99.90;;;;;;5032330;28;20343;-71
2022/05/05 02:30:57;;;;;;;;;;;7.00;99.90;;;;;;5032369;28;19925;-71
2022/05/05 02:33:23;;;;;;;;;;;7.00;99.90;;;;;;5031252;28;19925;-71
2022/05/05 02:38:42;;;;;;;;;;;6.90;99.90;;;;;;5033789;28;19932;-71
2022/05/05 02:38:43;;;;;;;;;;;6.90;99.90;;;;;;5032456;28;19995;-71
2022/05/05 02:41:09;;;;;;;;;;;6.90;99.90;;;;;;5031044;28;19974;-71
2022/05/05 02:43:34;;;;;;;;;;;6.90;99.90;;;;;;5032045;28;19921;-71
2022/05/05 02:46:00;;;;;;;;;;;6.90;99.90;;;;;;5031780;28;20023;-71
2022/05/05 02:48:25;;;;;;;;;;;6.90;99.90;;;;;;5032887;28;19925;-71
2022/05/05 02:50:51;;;;;;;;;;;6.80;99.90;;;;;;5032142;28;19921;-71
2022/05/05 02:56:06;;;;;;;;;;;6.80;99.90;;;;;;5032816;28;19921;-72
2022/05/05 02:58:32;;;;;;;;;;;6.80;99.90;;;;;;5033442;28;19924;-71
2022/05/05 03:00:57;;;;;;;;;;;6.70;99.90;;;;;;5031314;28;19925;-71
2022/05/05 03:03:23;;;;;;;;;;;6.70;99.90;;;;;;5032469;28;20234;-71
2022/05/05 03:05:48;;;;;;;;;;;6.70;99.90;;;;;;5032127;28;19968;-71
2022/05/05 03:08:14;;;;;;;;;;;6.70;99.90;;;;;;5032180;28;19921;-71
2022/05/05 03:10:39;;;;;;;;;;;6.70;99.90;;;;;;5032681;28;19975;-72
2022/05/05 03:13:07;;;;;;;;;;;6.70;99.90;;;;;;5031176;28;20007;-72
2022/05/05 03:15:33;;;;;;;;;;;6.70;99.90;;;;;;5030512;28;19921;-71
2022/05/05 03:17:58;;;;;;;;;;;6.70;99.90;;;;;;5031554;28;20276;-71
2022/05/05 03:20:24;;;;;;;;;;;6.70;99.90;;;;;;5033048;28;19982;-71
2022/05/05 03:22:49;;;;;;;;;;;6.70;99.90;;;;;;5031852;28;20340;-72
2022/05/05 03:25:16;;;;;;;;;;;6.70;99.90;;;;;;5031947;28;20349;-71
2022/05/05 03:27:41;;;;;;;;;;;6.70;99.90;;;;;;5029895;28;19927;-71
2022/05/05 03:30:07;;;;;;;;;;;6.70;99.90;;;;;;5030550;28;20011;-72
2022/05/05 03:32:33;;;;;;;;;;;6.60;99.90;;;;;;5032412;28;19928;-72
2022/05/05 03:34:58;;;;;;;;;;;6.60;99.90;;;;;;5031625;28;19925;-72
2022/05/05 03:37:30;;;;;;;;;;;6.60;99.90;;;;;;5030556;28;19944;-72
2022/05/05 03:39:56;;;;;;;;;;;6.60;99.90;;;;;;5028654;28;19928;-72
2022/05/05 03:42:22;;;;;;;;;;;6.50;99.90;;;;;;5031684;28;20276;-72
2022/05/05 03:44:47;;;;;;;;;;;6.50;99.90;;;;;;5031186;28;19967;-72
2022/05/05 03:47:13;;;;;;;;;;;6.60;99.90;;;;;;5030351;28;20377;-72
2022/05/05 03:49:38;;;;;;;;;;;6.50;99.90;;;;;;5030652;28;20015;-71
2022/05/05 03:52:04;;;;;;;;;;;6.50;99.90;;;;;;5029883;28;19969;-71
2022/05/05 03:54:30;;;;;;;;;;;6.40;99.90;;;;;;5031966;28;19982;-71
2022/05/05 03:56:55;;;;;;;;;;;6.50;99.90;;;;;;5030763;28;20349;-71
2022/05/05 03:59:23;;;;;;;;;;;6.40;99.90;;;;;;5031706;28;20455;-71
2022/05/05 04:01:49;;;;;;;;;;;6.40;99.90;;;;;;5032172;28;19921;-71
2022/05/05 04:04:16;;;;;;;;;;;6.40;99.90;;;;;;5030616;28;19928;-72
2022/05/05 04:06:41;;;;;;;;;;;6.40;99.90;;;;;;5029496;28;19928;-72
2022/05/05 04:09:07;;;;;;;;;;;6.30;99.90;;;;;;5029812;28;19921;-71
2022/05/05 04:11:34;;;;;;;;;;;6.30;99.90;;;;;;5030228;28;19921;-71
2022/05/05 04:13:59;;;;;;;;;;;6.30;99.90;;;;;;5030100;28;20451;-71
2022/05/05 04:16:25;;;;;;;;;;;6.30;99.90;;;;;;5033991;28;19995;-71
2022/05/05 04:18:50;;;;;;;;;;;6.40;99.90;;;;;;5033296;28;19927;-71
2022/05/05 04:21:16;;;;;;;;;;;6.40;99.90;;;;;;5035502;28;20000;-71
2022/05/05 04:23:41;;;;;;;;;;;6.40;99.90;;;;;;5033896;28;19991;-71
2022/05/05 04:26:09;;;;;;;;;;;6.40;99.90;;;;;;5033406;28;20379;-70
2022/05/05 04:28:34;;;;;;;;;;;6.40;99.90;;;;;;5033513;28;20414;-70
2022/05/05 04:31:00;;;;;;;;;;;6.60;99.90;;;;;;5033477;28;19928;-71
2022/05/05 04:33:25;;;;;;;;;;;6.50;99.90;;;;;;5032032;28;19921;-69
2022/05/05 04:35:54;;;;;;;;;;;6.60;99.90;;;;;;5033670;28;20359;-72
2022/05/05 04:38:19;;;;;;;;;;;6.60;99.90;;;;;;5032837;28;19924;-70
2022/05/05 04:40:44;;;;;;;;;;;7.00;99.90;;;;;;5034108;28;19928;-70
2022/05/05 04:43:10;;;;;;;;;;;6.90;99.90;;;;;;5034969;28;19921;-70
2022/05/05 04:45:35;;;;;;;;;;;6.90;99.90;;;;;;5030750;28;19924;-71
2022/05/05 04:48:01;;;;;;;;;;;7.00;99.90;;;;;;5033352;28;19928;-71
2022/05/05 04:50:27;;;;;;;;;;;7.10;99.90;;;;;;5033846;28;20015;-71
2022/05/05 04:52:52;;;;;;;;;;;7.20;99.90;;;;;;5034123;28;19928;-69
2022/05/05 04:55:18;;;;;;;;;;;7.30;99.90;;;;;;5034491;28;20281;-72
2022/05/05 04:57:43;;;;;;;;;;;7.40;99.90;;;;;;5034017;28;20379;-73
2022/05/05 05:00:09;;;;;;;;;;;7.50;99.90;;;;;;5033775;28;19917;-73
2022/05/05 05:02:35;;;;;;;;;;;7.60;99.90;;;;;;5033061;28;19921;-72
2022/05/05 05:05:00;;;;;;;;;;;7.80;99.90;;;;;;5033184;28;20280;-77
2022/05/05 05:07:26;;;;;;;;;;;7.90;99.90;;;;;;5032937;28;19917;-71
2022/05/05 05:09:52;;;;;;;;;;;8.00;99.90;;;;;;5034588;28;20292;-75
2022/05/05 05:12:17;;;;;;;;;;;8.10;99.90;;;;;;5033302;28;19921;-73
2022/05/05 05:14:43;;;;;;;;;;;8.20;99.90;;;;;;5032784;28;20012;-74
2022/05/05 05:17:08;;;;;;;;;;;8.20;99.90;;;;;;5034935;28;19931;-73
2022/05/05 05:19:34;;;;;;;;;;;8.30;99.90;;;;;;5034785;28;20323;-74
2022/05/05 05:22:02;;;;;;;;;;;8.40;99.90;;;;;;5032041;28;19943;-76
2022/05/05 05:24:28;;;;;;;;;;;8.70;99.90;;;;;;5033750;28;20024;-74
2022/05/05 05:26:53;;;;;;;;;;;8.50;99.90;;;;;;5034456;28;19976;-73
2022/05/05 05:29:19;;;;;;;;;;;8.60;99.90;;;;;;5034149;28;19929;-69
2022/05/05 05:31:44;;;;;;;;;;;8.70;99.90;;;;;;5032799;28;19921;-69
2022/05/05 05:34:11;;;;;;;;;;;8.80;99.90;;;;;;5032520;28;20372;-69
2022/05/05 05:36:36;;;;;;;;;;;8.90;99.90;;;;;;5034161;28;20020;-74
2022/05/05 05:39:02;;;;;;;;;;;8.90;99.90;;;;;;5032569;28;20396;-73
2022/05/05 05:41:27;;;;;;;;;;;8.90;99.90;;;;;;5032826;28;19921;-72
2022/05/05 05:43:53;;;;;;;;;;;8.90;99.90;;;;;;5032849;28;19975;-72
2022/05/05 05:46:19;;;;;;;;;;;9.00;99.90;;;;;;5032742;28;19932;-71
2022/05/05 05:48:44;;;;;;;;;;;9.10;99.90;;;;;;5033522;28;19921;-75
2022/05/05 05:51:10;;;;;;;;;;;9.10;99.90;;;;;;5033047;28;19928;-71
2022/05/05 05:53:35;;;;;;;;;;;9.10;99.90;;;;;;5031865;28;19955;-71
2022/05/05 05:56:01;;;;;;;;;;;9.20;99.90;;;;;;5030612;28;20328;-71
2022/05/05 05:58:26;;;;;;;;;;;9.20;99.90;;;;;;5032897;28;19956;-71
2022/05/05 06:00:52;;;;;;;;;;;9.10;99.90;;;;;;5030338;28;19971;-71
2022/05/05 06:06:02;;;;;;;;;;;9.20;99.90;;;;;;5031557;28;19917;-71
2022/05/05 06:08:27;;;;;;;;;;;9.30;99.90;;;;;;5032340;28;19975;-71
2022/05/05 06:10:53;;;;;;;;;;;9.40;99.90;;;;;;5030562;28;19923;-71
2022/05/05 06:13:18;;;;;;;;;;;9.30;99.90;;;;;;5032623;28;20016;-70
2022/05/05 06:15:44;;;;;;;;;;;9.30;99.90;;;;;;5031320;28;19964;-71
2022/05/05 06:18:09;;;;;;;;;;;9.30;99.90;;;;;;5030695;28;20288;-71
2022/05/05 06:20:35;;;;;;;;;;;9.30;99.90;;;;;;5031636;28;19921;-71
2022/05/05 06:23:00;;;;;;;;;;;9.40;99.90;;;;;;5031487;28;19920;-71
2022/05/05 06:25:26;;;;;;;;;;;9.50;99.90;;;;;;5033353;28;20040;-72
2022/05/05 06:27:52;;;;;;;;;;;9.60;99.90;;;;;;5033788;28;19967;-71
2022/05/05 06:30:17;;;;;;;;;;;9.70;99.90;;;;;;5032120;28;19921;-70
2022/05/05 06:32:44;;;;;;;;;;;9.70;99.90;;;;;;5032920;28;19928;-71
2022/05/05 06:35:10;;;;;;;;;;;9.80;99.90;;;;;;5033362;28;20037;-71
2022/05/05 06:37:36;;;;;;;;;;;9.90;99.90;;;;;;5032491;28;19951;-70
2022/05/05 06:40:02;;;;;;;;;;;10.00;99.90;;;;;;5031613;28;20395;-71
2022/05/05 06:42:28;;;;;;;;;;;10.10;99.90;;;;;;5033578;28;19928;-71
2022/05/05 06:44:54;;;;;;;;;;;10.10;99.90;;;;;;5033384;28;19921;-71
2022/05/05 06:47:20;;;;;;;;;;;10.30;99.90;;;;;;5030696;28;19921;-72
2022/05/05 06:49:45;;;;;;;;;;;10.30;99.90;;;;;;5032020;28;19921;-72
2022/05/05 06:52:11;;;;;;;;;;;10.40;99.90;;;;;;5031907;28;20023;-72
2022/05/05 06:54:36;;;;;;;;;;;10.40;99.90;;;;;;5031171;28;19975;-71
2022/05/05 06:57:02;;;;;;;;;;;10.60;99.90;;;;;;5032548;28;19975;-70
2022/05/05 06:59:28;;;;;;;;;;;10.60;99.90;;;;;;5031767;28;19939;-70
2022/05/05 07:01:53;;;;;;;;;;;10.70;99.90;;;;;;5031708;28;19928;-69
2022/05/05 07:07:07;;;;;;;;;;;10.90;99.90;;;;;;5032389;28;19921;-71
2022/05/05 07:12:17;;;;;;;;;;;11.10;99.90;;;;;;5032448;28;19928;-69
2022/05/05 07:14:44;;;;;;;;;;;11.20;99.90;;;;;;5030787;28;19921;-69
2022/05/05 07:17:10;;;;;;;;;;;11.20;99.90;;;;;;5032823;28;20016;-70
2022/05/05 07:19:35;;;;;;;;;;;11.30;99.90;;;;;;5032819;28;19976;-73
2022/05/05 07:22:01;;;;;;;;;;;11.40;99.90;;;;;;5030624;28;19968;-72
2022/05/05 07:24:27;;;;;;;;;;;11.50;99.90;;;;;;5032510;28;19921;-72
2022/05/05 07:26:53;;;;;;;;;;;11.70;99.90;;;;;;5032338;28;19921;-73
2022/05/05 07:29:18;;;;;;;;;;;11.80;99.90;;;;;;5031903;28;19929;-72
2022/05/05 07:31:44;;;;;;;;;;;12.00;99.90;;;;;;5031514;28;19931;-74
2022/05/05 07:34:10;;;;;;;;;;;12.20;99.90;;;;;;5030653;28;19995;-72
2022/05/05 07:36:36;;;;;;;;;;;12.50;99.90;;;;;;5032313;28;19929;-73
2022/05/05 07:39:01;;;;;;;;;;;12.70;99.90;;;;;;5032087;28;19921;-71
2022/05/05 07:41:27;;;;;;;;;;;12.90;99.90;;;;;;5032591;28;20281;-72
2022/05/05 07:43:52;;;;;;;;;;;13.20;99.90;;;;;;5030738;28;19927;-72
2022/05/05 07:46:18;;;;;;;;;;;13.50;99.90;;;;;;5032385;28;19929;-72
2022/05/05 07:48:44;;;;;;;;;;;13.60;99.90;;;;;;5032899;28;20384;-72
2022/05/05 07:51:10;;;;;;;;;;;13.60;99.90;;;;;;5036265;28;19925;-73
2022/05/05 07:53:36;;;;;;;;;;;13.60;99.90;;;;;;5036472;28;19975;-72
2022/05/05 07:56:01;;;;;;;;;;;13.60;99.90;;;;;;5036352;28;19921;-73
2022/05/05 07:58:27;;;;;;;;;;;14.10;99.90;;;;;;5036101;28;19928;-71
2022/05/05 08:00:52;;;;;;;;;;;13.70;99.90;;;;;;5036865;28;19921;-72
2022/05/05 08:03:18;;;;;;;;;;;14.10;99.90;;;;;;5034415;28;20490;-70
2022/05/05 08:05:44;;;;;;;;;;;14.30;99.90;;;;;;5036733;28;19921;-69
2022/05/05 08:08:09;;;;;;;;;;;14.80;99.90;;;;;;5035511;28;19921;-71
2022/05/05 08:10:35;;;;;;;;;;;15.30;99.90;;;;;;5034150;28;20300;-70
2022/05/05 08:13:01;;;;;;;;;;;15.50;99.90;;;;;;5034833;28;20324;-70
2022/05/05 08:15:27;;;;;;;;;;;15.70;99.90;;;;;;5034485;28;19921;-69
2022/05/05 08:17:53;;;;;;;;;;;15.70;99.90;;;;;;5034047;28;20359;-77
2022/05/05 08:20:18;;;;;;;;;;;15.70;99.90;;;;;;5033664;28;19931;-69
2022/05/05 08:22:44;;;;;;;;;;;15.80;99.90;;;;;;5033269;28;19921;-73
2022/05/05 08:30:38;;;;;;;;;;;15.80;99.90;;;;;;5035699;28;19921;-71
2022/05/05 08:33:03;;;;;;;;;;;15.70;99.90;;;;;;5032900;28;19986;-70
2022/05/05 08:35:29;;;;;;;;;;;15.50;99.90;;;;;;5034911;28;19928;-71
2022/05/05 08:37:55;;;;;;;;;;;15.40;99.90;;;;;;5034809;28;19921;-71
2022/05/05 08:40:25;;;;;;;;;;;15.40;99.90;;;;;;5033202;28;19923;-71
2022/05/05 08:42:50;;;;;;;;;;;15.60;99.90;;;;;;5034227;28;20261;-72
2022/05/05 08:45:16;;;;;;;;;;;16.10;99.90;;;;;;5034260;28;19943;-76
2022/05/05 08:47:44;;;;;;;;;;;17.00;99.30;;;;;;5035253;28;20328;-71
2022/05/05 08:50:10;;;;;;;;;;;18.50;98.00;;;;;;5035446;28;19921;-71
2022/05/05 08:52:40;;;;;;;;;;;19.50;96.40;;;;;;5034716;28;19962;-70
2022/05/05 08:55:05;;;;;;;;;;;19.70;95.50;;;;;;5035275;28;19921;-70
2022/05/05 08:57:31;;;;;;;;;;;19.80;94.00;;;;;;5035197;28;19921;-70
2022/05/05 08:59:56;;;;;;;;;;;19.90;94.00;;;;;;5034002;28;19933;-69
2022/05/05 09:02:22;;;;;;;;;;;20.30;93.70;;;;;;5034196;28;19921;-70
2022/05/05 09:04:47;;;;;;;;;;;20.80;93.00;;;;;;5034133;28;20010;-70
2022/05/05 09:07:13;;;;;;;;;;;21.40;91.80;;;;;;5034313;28;20365;-70
2022/05/05 09:09:39;;;;;;;;;;;22.00;89.90;;;;;;5034204;28;19951;-70
2022/05/05 09:12:05;;;;;;;;;;;22.50;89.70;;;;;;5034961;28;19957;-70
2022/05/05 09:14:37;;;;;;;;;;;22.50;88.10;;;;;;5034532;28;19921;-70
2022/05/05 09:17:06;;;;;;;;;;;22.70;87.40;;;;;;5032978;28;20415;-70
2022/05/05 09:19:36;;;;;;;;;;;23.10;85.60;;;;;;5034959;28;20012;-69
2022/05/05 09:22:02;;;;;;;;;;;23.80;81.80;;;;;;5032714;28;19928;-69
2022/05/05 09:24:41;;;;;;;;;;;23.50;80.30;;;;;;5033545;28;19921;-70
2022/05/05 09:27:15;;;;;;;;;;;23.20;81.00;;;;;;5034664;28;19927;-70
2022/05/05 09:29:41;;;;;;;;;;;22.90;82.80;;;;;;5033066;28;20369;-70
2022/05/05 09:32:11;;;;;;;;;;;22.70;82.20;;;;;;5033511;28;19921;-69
2022/05/05 09:34:37;;;;;;;;;;;22.30;84.50;;;;;;5034280;28;19921;-70
2022/05/05 09:37:18;;;;;;;;;;;22.10;82.00;;;;;;5032641;28;19927;-70
2022/05/05 09:39:44;;;;;;;;;;;21.90;82.10;;;;;;5033464;28;20286;-70
2022/05/05 09:42:09;;;;;;;;;;;21.70;83.70;;;;;;5032694;28;19921;-72
2022/05/05 09:44:45;;;;;;;;;;;21.50;84.90;;;;;;5033325;28;19917;-72
2022/05/05 09:47:19;;;;;;;;;;;21.40;85.20;;;;;;5032805;28;20386;-70
2022/05/05 09:50:04;;;;;;;;;;;21.20;84.50;;;;;;5033797;28;20304;-71
2022/05/05 09:58:08;;;;;;;;;;;20.60;86.70;;;;;;5033561;28;20327;-74
2022/05/05 10:06:06;;;;;;;;;;;20.30;90.40;;;;;;5033847;28;20257;-70
2022/05/05 10:08:37;;;;;;;;;;;20.70;90.10;;;;;;5033476;28;19917;-71
2022/05/05 10:11:09;;;;;;;;;;;21.70;90.30;;;;;;5029712;28;20376;-71
2022/05/05 10:13:36;;;;;;;;;;;22.20;88.20;;;;;;5019206;28;19972;-73
2022/05/05 10:16:03;;;;;;;;;;;22.20;87.70;;;;;;5032785;28;20383;-76
2022/05/05 10:18:28;;;;;;;;;;;22.40;85.40;;;;;;5031940;28;19968;-71
2022/05/05 10:20:57;;;;;;;;;;;22.30;87.50;;;;;;5034067;28;20026;-71
2022/05/05 10:23:30;;;;;;;;;;;22.10;87.40;;;;;;5033146;28;19964;-71
2022/05/05 10:25:55;;;;;;;;;;;22.80;87.00;;;;;;5031207;28;19920;-74
2022/05/05 10:28:40;;;;;;;;;;;23.40;84.30;;;;;;5031521;28;19944;-71
2022/05/05 10:31:33;;;;;;;;;;;23.10;85.90;;;;;;5032569;28;19932;-71
2022/05/05 10:34:06;;;;;;;;;;;22.90;87.30;;;;;;5018434;28;19925;-70
2022/05/05 10:36:33;;;;;;;;;;;23.60;86.80;;;;;;5014538;28;19922;-71
2022/05/05 10:38:58;;;;;;;;;;;23.90;83.90;;;;;;5012118;28;19956;-71
2022/05/05 10:41:30;;;;;;;;;;;23.40;84.00;;;;;;5013295;28;20011;-70
2022/05/05 10:44:14;;;;;;;;;;;23.10;86.20;;;;;;5012613;28;20440;-70
2022/05/05 10:46:55;;;;;;;;;;;23.10;89.30;;;;;;5013567;28;19922;-71
2022/05/05 10:49:30;;;;;;;;;;;23.50;85.40;;;;;;5026965;28;20292;-72
2022/05/05 10:52:08;;;;;;;;;;;23.40;84.30;;;;;;5031018;28;19921;-71
2022/05/05 10:54:33;;;;;;;;;;;22.90;84.70;;;;;;5031812;28;19952;-69
2022/05/05 10:57:18;;;;;;;;;;;22.60;87.70;;;;;;5031654;28;19987;-70
2022/05/05 11:00:02;;;;;;;;;;;22.50;89.20;;;;;;5030020;28;19967;-70
2022/05/05 11:02:28;;;;;;;;;;;22.50;88.20;;;;;;5031016;28;19975;-70
2022/05/05 11:05:13;;;;;;;;;;;22.70;88.60;;;;;;5032970;28;19917;-70
2022/05/05 11:07:38;;;;;;;;;;;23.10;88.60;;;;;;5028830;28;19928;-70
2022/05/05 11:10:05;;;;;;;;;;;23.40;84.20;;;;;;5030513;28;19963;-70
2022/05/05 11:12:32;;;;;;;;;;;23.10;86.10;;;;;;5032698;28;20008;-70
2022/05/05 11:23:27;;;;;;;;;;;23.40;86.00;;;;;;5032464;28;19921;-70
2022/05/05 11:25:54;;;;;;;;;;;22.90;86.20;;;;;;5031515;28;19921;-70
2022/05/05 11:28:20;;;;;;;;;;;22.40;86.90;;;;;;5030970;28;19948;-70
2022/05/05 11:30:45;;;;;;;;;;;22.70;89.20;;;;;;5031129;28;20361;-70
2022/05/05 11:33:11;;;;;;;;;;;22.10;89.40;;;;;;5031006;28;19921;-70
2022/05/05 11:35:37;;;;;;;;;;;22.30;89.80;;;;;;5030857;28;19987;-70
2022/05/05 11:38:02;;;;;;;;;;;22.20;88.50;;;;;;5031430;28;19921;-70
2022/05/05 11:40:34;;;;;;;;;;;22.20;88.70;;;;;;5032710;28;19917;-70
2022/05/05 11:45:44;;;;;;;;;;;22.10;88.80;;;;;;5032597;28;19983;-70
2022/05/05 11:48:17;;;;;;;;;;;22.00;88.50;;;;;;5030900;28;19927;-70
2022/05/05 11:50:45;;;;;;;;;;;21.80;89.50;;;;;;5032859;28;19975;-70
2022/05/05 11:53:15;;;;;;;;;;;22.00;88.60;;;;;;5031167;28;19928;-70
2022/05/05 11:55:44;;;;;;;;;;;22.00;88.60;;;;;;5031902;28;20296;-70
2022/05/05 12:04:01;;;;;;;;;;;21.70;90.50;;;;;;5030555;28;19952;-70
2022/05/05 12:06:27;;;;;;;;;;;21.90;90.20;;;;;;5031155;28;20040;-70
2022/05/05 12:08:53;;;;;;;;;;;21.90;88.60;;;;;;5032425;28;20365;-70
2022/05/05 12:11:19;;;;;;;;;;;21.90;89.50;;;;;;5031837;28;19929;-70
2022/05/05 12:13:44;;;;;;;;;;;21.80;89.70;;;;;;5032356;28;20382;-70
2022/05/05 12:16:10;;;;;;;;;;;21.90;89.10;;;;;;5032266;28;20420;-70
2022/05/05 12:18:48;;;;;;;;;;;21.70;88.80;;;;;;5031697;28;19928;-70
2022/05/05 12:21:24;;;;;;;;;;;21.90;90.00;;;;;;5030822;28;19921;-70
2022/05/05 12:23:57;;;;;;;;;;;22.10;88.40;;;;;;5030141;28;20012;-70
2022/05/05 12:26:27;;;;;;;;;;;21.90;90.80;;;;;;5030997;28;19943;-70
2022/05/05 12:28:52;;;;;;;;;;;22.10;90.30;;;;;;5032213;28;20292;-70
2022/05/05 12:31:21;;;;;;;;;;;22.40;89.50;;;;;;5031456;28;19925;-71
2022/05/05 12:33:48;;;;;;;;;;;22.70;88.50;;;;;;5030399;28;20003;-70
2022/05/05 12:36:14;;;;;;;;;;;22.60;87.30;;;;;;5032047;28;19921;-70
2022/05/05 12:38:39;;;;;;;;;;;22.30;87.70;;;;;;5034040;28;20355;-70
2022/05/05 12:41:06;;;;;;;;;;;22.40;90.00;;;;;;5034082;28;19929;-70
2022/05/05 12:43:34;;;;;;;;;;;22.50;89.10;;;;;;5035509;28;19921;-70
2022/05/05 12:46:06;;;;;;;;;;;22.80;88.10;;;;;;5033384;28;20007;-70
2022/05/05 12:48:31;;;;;;;;;;;22.70;88.10;;;;;;5035780;28;19921;-70
2022/05/05 12:51:13;;;;;;;;;;;23.10;87.00;;;;;;5033941;28;20001;-70
2022/05/05 13:01:53;;;;;;;;;;;23.10;86.70;;;;;;5035015;28;19921;-70
2022/05/05 13:04:19;;;;;;;;;;;22.60;87.80;;;;;;5034752;28;19975;-70
2022/05/05 13:06:45;;;;;;;;;;;22.70;87.60;;;;;;5035038;28;19928;-70
2022/05/05 13:09:11;;;;;;;;;;;23.00;87.70;;;;;;5034411;28;20299;-70
2022/05/05 13:11:38;;;;;;;;;;;23.10;85.40;;;;;;5033838;28;19928;-70
2022/05/05 13:14:03;;;;;;;;;;;23.30;85.60;;;;;;5032849;28;19921;-70
2022/05/05 13:16:30;;;;;;;;;;;23.20;87.30;;;;;;5033910;28;20386;-70
2022/05/05 13:18:57;;;;;;;;;;;23.10;86.90;;;;;;5034556;28;19921;-71
2022/05/05 13:21:23;;;;;;;;;;;23.30;86.20;;;;;;5033036;28;20308;-70
2022/05/05 13:23:48;;;;;;;;;;;23.30;85.70;;;;;;5034552;28;19932;-71
2022/05/05 13:26:14;;;;;;;;;;;23.20;86.80;;;;;;5033318;28;19920;-70
2022/05/05 13:28:39;;;;;;;;;;;23.50;85.50;;;;;;5032438;28;19917;-70
2022/05/05 13:31:05;;;;;;;;;;;23.30;87.70;;;;;;5034482;28;19968;-71
2022/05/05 13:33:31;;;;;;;;;;;23.40;88.30;;;;;;5032983;28;19933;-71
2022/05/05 13:35:56;;;;;;;;;;;23.30;88.90;;;;;;5024767;28;19925;-71
2022/05/05 13:38:25;;;;;;;;;;;23.10;89.30;;;;;;5013384;28;19922;-71
2022/05/05 13:40:51;;;;;;;;;;;22.90;90.00;;;;;;5012917;28;19928;-71
2022/05/05 13:43:17;;;;;;;;;;;23.10;90.40;;;;;;5012936;28;19921;-71
2022/05/05 13:45:42;;;;;;;;;;;23.30;89.70;;;;;;5018953;28;20011;-73
2022/05/05 13:48:08;;;;;;;;;;;23.30;89.60;;;;;;5025015;28;20373;-73
2022/05/05 13:50:33;;;;;;;;;;;23.40;88.70;;;;;;5015088;28;19921;-72
2022/05/05 13:52:59;;;;;;;;;;;23.40;89.80;;;;;;5014095;28;20304;-69
2022/05/05 13:55:26;;;;;;;;;;;23.00;89.40;;;;;;5017031;28;19921;-71
2022/05/05 13:57:51;;;;;;;;;;;22.90;90.40;;;;;;5032851;28;20008;-71
2022/05/05 14:00:17;;;;;;;;;;;22.80;90.40;;;;;;5032665;28;20025;-71
2022/05/05 14:02:43;;;;;;;;;;;22.80;90.40;;;;;;5033582;28;19925;-70
2022/05/05 14:05:08;;;;;;;;;;;22.90;90.40;;;;;;5034034;28;20408;-71
2022/05/05 14:13:02;;;;;;;;;;;22.60;90.20;;;;;;5033546;28;20012;-72
2022/05/05 14:15:28;;;;;;;;;;;22.70;90.70;;;;;;5032629;28;20007;-70
2022/05/05 14:17:54;;;;;;;;;;;22.60;90.70;;;;;;5032239;28;19967;-71
2022/05/05 14:20:21;;;;;;;;;;;22.60;90.60;;;;;;5032260;28;20411;-72
2022/05/05 14:22:47;;;;;;;;;;;22.70;90.20;;;;;;5033664;28;20376;-69
2022/05/05 14:25:12;;;;;;;;;;;22.90;90.80;;;;;;5032970;28;19921;-70
2022/05/05 14:27:38;;;;;;;;;;;22.70;90.10;;;;;;5033423;28;20042;-70
2022/05/05 14:30:04;;;;;;;;;;;22.90;90.50;;;;;;5031780;28;19972;-72
2022/05/05 14:32:30;;;;;;;;;;;22.60;90.00;;;;;;5032319;28;19967;-71
2022/05/05 14:34:55;;;;;;;;;;;23.00;90.70;;;;;;5033499;28;19921;-71
2022/05/05 14:37:21;;;;;;;;;;;23.00;90.20;;;;;;5031906;28;20331;-72
2022/05/05 14:39:46;;;;;;;;;;;23.20;90.30;;;;;;5032282;28;19921;-71
2022/05/05 14:42:12;;;;;;;;;;;23.20;90.20;;;;;;5033244;28;19929;-70
2022/05/05 14:44:38;;;;;;;;;;;23.30;89.50;;;;;;5031248;28;20368;-71
2022/05/05 14:47:04;;;;;;;;;;;23.80;89.10;;;;;;5033376;28;20008;-70
2022/05/05 14:49:30;;;;;;;;;;;23.40;90.20;;;;;;5032116;28;19925;-71
2022/05/05 14:51:55;;;;;;;;;;;23.50;89.00;;;;;;5033013;28;19921;-71
2022/05/05 14:54:21;;;;;;;;;;;23.70;90.00;;;;;;5032920;28;20365;-71
2022/05/05 14:56:46;;;;;;;;;;;23.70;88.10;;;;;;5032969;28;19921;-70
2022/05/05 14:59:12;;;;;;;;;;;23.40;88.50;;;;;;5031693;28;19921;-70
2022/05/05 15:01:37;;;;;;;;;;;23.80;88.30;;;;;;5033746;28;19921;-70
2022/05/05 15:04:03;;;;;;;;;;;23.30;88.70;;;;;;5032578;28;19967;-70
2022/05/05 15:06:29;;;;;;;;;;;23.30;88.20;;;;;;5031325;28;19927;-69
2022/05/05 15:08:55;;;;;;;;;;;23.40;88.50;;;;;;5033377;28;20007;-70
2022/05/05 15:11:20;;;;;;;;;;;23.10;88.30;;;;;;5031044;28;21635;-75
2022/05/05 15:13:46;;;;;;;;;;;22.80;89.70;;;;;;5029799;28;19925;-75
2022/05/05 15:16:11;;;;;;;;;;;22.50;89.20;;;;;;5031384;28;19921;-70
2022/05/05 15:18:37;;;;;;;;;;;22.60;90.30;;;;;;5032460;28;19921;-72
2022/05/05 15:21:02;;;;;;;;;;;22.70;90.30;;;;;;5032098;28;19932;-70
2022/05/05 15:23:29;;;;;;;;;;;22.40;90.20;;;;;;5031180;28;19921;-69
2022/05/05 15:25:55;;;;;;;;;;;22.10;90.60;;;;;;5031674;28;20393;-68
2022/05/05 15:28:20;;;;;;;;;;;21.80;90.60;;;;;;5030247;28;19932;-68
2022/05/05 15:30:46;;;;;;;;;;;21.70;91.00;;;;;;5031582;28;19944;-68